createdAt,value
2023-02-03T00:06:10.171Z,92.96
2023-02-03T00:09:20.066Z,92.89
2023-02-03T00:16:29.478Z,92.12
2023-02-03T00:19:40.780Z,90.73
2023-02-03T00:40:28.214Z,86.28
2023-02-03T00:55:37.867Z,82.12
2023-02-03T01:20:31.257Z,88.13
2023-02-03T01:27:30.109Z,86.28
2023-02-03T01:38:27.988Z,83.37
2023-02-03T01:41:41.891Z,83.33
2023-02-03T01:48:59.334Z,84.92
2023-02-03T02:40:36.804Z,88.43
2023-02-03T02:44:23.451Z,89.45
2023-02-03T02:48:10.006Z,89.62
2023-02-03T03:02:34.675Z,88.51
2023-02-03T03:06:02.036Z,89.64
2023-02-03T03:13:25.742Z,91.56
2023-02-03T03:24:09.439Z,88.29
2023-02-03T03:27:29.424Z,85.61
2023-02-03T03:37:56.145Z,84.39
2023-02-03T03:41:18.563Z,84.25
2023-02-03T04:02:39.644Z,83.28
2023-02-03T04:05:43.258Z,85.04
2023-02-03T04:08:45.446Z,84.01
2023-02-03T04:12:03.087Z,83.02
2023-02-03T04:15:05.832Z,82.66
2023-02-03T04:18:11.709Z,79.91
2023-02-03T04:21:14.240Z,79.75
2023-02-03T04:24:19.904Z,80.97
2023-02-03T04:27:23.887Z,83.28
2023-02-03T04:30:26.977Z,85.21
2023-02-03T04:33:32.860Z,82.58
2023-02-03T04:36:37.518Z,82.62
2023-02-03T04:39:43.041Z,81.97
2023-02-03T04:42:45.932Z,78.27
2023-02-03T04:45:53.604Z,75.79
2023-02-03T04:48:56.116Z,76.40
2023-02-03T04:51:59.227Z,74.84
2023-02-03T04:55:05.992Z,73.89
2023-02-03T04:58:10.306Z,75.40
2023-02-03T05:01:17.504Z,72.72
2023-02-03T05:04:21.614Z,73.71
2023-02-03T05:07:29.391Z,73.78
2023-02-03T05:10:32.723Z,75.41
2023-02-03T05:13:35.496Z,70.73
2023-02-03T05:16:37.802Z,70.29
2023-02-03T05:19:43.325Z,70.33
2023-02-03T05:22:46.280Z,67.92
2023-02-03T05:25:48.528Z,69.38
2023-02-03T05:28:56.055Z,69.54
2023-02-03T05:32:01.516Z,69.70
2023-02-03T05:35:04.143Z,67.80
2023-02-03T05:38:07.137Z,68.40
2023-02-03T05:41:32.105Z,64.17
2023-02-03T05:44:35.201Z,64.19
2023-02-03T05:47:40.845Z,64.91
2023-02-03T05:50:48.444Z,67.91
2023-02-03T05:53:56.257Z,67.87
2023-02-03T05:56:59.850Z,66.76
2023-02-03T06:00:02.760Z,66.40
2023-02-03T06:03:06.537Z,68.79
2023-02-03T06:06:09.851Z,65.30
2023-02-03T06:09:17.640Z,65.80
2023-02-03T06:12:20.633Z,65.24
2023-02-03T06:15:23.532Z,66.41
2023-02-03T06:18:26.016Z,64.90
2023-02-03T06:21:36.256Z,64.97
2023-02-03T06:24:39.147Z,66.82
2023-02-03T06:27:42.593Z,67.90
2023-02-03T06:30:44.835Z,65.94
2023-02-03T06:33:48.004Z,67.22
2023-02-03T06:36:52.525Z,66.49
2023-02-03T06:39:57.825Z,66.28
2023-02-03T06:43:00.767Z,67.42
2023-02-03T06:46:06.268Z,65.55
2023-02-03T06:49:12.104Z,64.99
2023-02-03T06:52:19.875Z,65.64
2023-02-03T06:55:25.938Z,64.41
2023-02-03T06:58:28.103Z,66.57
2023-02-03T07:01:31.564Z,67.40
2023-02-03T07:04:37.397Z,70.53
2023-02-03T07:07:40.093Z,71.15
2023-02-03T07:10:47.326Z,72.58
2023-02-03T07:13:50.409Z,71.15
2023-02-03T07:17:00.180Z,70.93
2023-02-03T07:20:04.183Z,72.69
2023-02-03T07:23:09.237Z,73.11
2023-02-03T07:26:19.146Z,74.32
2023-02-03T07:29:22.466Z,74.77
2023-02-03T07:32:27.153Z,70.71
2023-02-03T07:35:29.917Z,71.43
2023-02-03T07:38:33.607Z,73.66
2023-02-03T07:41:39.530Z,73.69
2023-02-03T07:44:46.607Z,74.71
2023-02-03T07:47:56.731Z,74.77
2023-02-03T07:51:02.627Z,74.18
2023-02-03T07:54:10.968Z,65.92
2023-02-03T07:57:20.586Z,66.19
2023-02-03T08:00:22.960Z,67.03
2023-02-03T08:03:28.218Z,70.18
2023-02-03T08:06:34.181Z,71.15
2023-02-03T08:09:40.756Z,71.77
2023-02-03T08:12:49.865Z,72.79
2023-02-03T08:15:55.492Z,71.36
2023-02-03T08:19:02.511Z,69.33
2023-02-03T08:22:08.354Z,71.72
2023-02-03T08:25:18.106Z,73.85
2023-02-03T08:28:21.013Z,76.33
2023-02-03T08:31:24.423Z,77.24
2023-02-03T08:34:39.662Z,77.70
2023-02-03T08:37:42.753Z,79.33
2023-02-03T08:40:49.745Z,79.55
2023-02-03T08:43:56.310Z,80.35
2023-02-03T08:47:03.190Z,81.38
2023-02-03T08:50:06.784Z,81.32
2023-02-03T08:53:10.715Z,81.49
2023-02-03T08:56:14.831Z,83.00
2023-02-03T08:59:23.961Z,82.38
2023-02-03T09:02:42.719Z,83.55
2023-02-03T09:05:50.212Z,82.75
2023-02-03T09:08:55.074Z,86.09
2023-02-03T09:12:05.637Z,88.75
2023-02-03T09:15:09.009Z,90.26
2023-02-03T09:18:14.702Z,94.28
2023-02-03T09:21:33.481Z,97.96
2023-02-03T09:24:42.270Z,100.00
2023-02-03T09:27:46.142Z,100.00
2023-02-03T09:30:48.861Z,100.00
2023-02-03T09:33:56.028Z,100.00
2023-02-03T09:37:04.032Z,100.00
2023-02-03T09:40:08.052Z,100.00
2023-02-03T09:43:15.158Z,100.00
2023-02-03T09:46:23.196Z,100.00
2023-02-03T09:49:30.254Z,100.00
2023-02-03T09:52:35.056Z,100.00
2023-02-03T09:55:41.936Z,100.00
2023-02-03T09:58:46.166Z,100.00
2023-02-03T10:02:10.446Z,100.00
2023-02-03T10:05:31.958Z,100.00
2023-02-03T10:08:44.080Z,100.00
2023-02-03T10:12:07.135Z,100.00
2023-02-03T10:15:42.987Z,100.00
2023-02-03T10:18:51.197Z,100.00
2023-02-03T10:21:58.147Z,100.00
2023-02-03T10:25:06.290Z,100.00
2023-02-03T10:28:26.563Z,100.00
2023-02-03T10:31:32.562Z,100.00
2023-02-03T10:34:35.113Z,100.00
2023-02-03T10:37:49.645Z,100.00
2023-02-03T10:44:23.024Z,100.00
2023-02-03T10:47:35.345Z,100.00
2023-02-03T10:50:41.501Z,100.00
2023-02-03T10:53:43.633Z,100.00
2023-02-03T10:56:45.950Z,100.00
2023-02-03T10:59:48.571Z,100.00
2023-02-03T11:03:02.652Z,100.00
2023-02-03T11:06:06.889Z,100.00
2023-02-03T11:09:22.987Z,100.00
2023-02-03T11:12:25.129Z,100.00
2023-02-03T11:15:27.344Z,100.00
2023-02-03T11:18:32.492Z,100.00
2023-02-03T11:21:37.449Z,100.00
2023-02-03T11:24:41.119Z,100.00
2023-02-03T11:27:44.986Z,100.00
2023-02-03T11:30:55.062Z,100.00
2023-02-03T11:34:02.255Z,100.00
2023-02-03T11:37:26.400Z,100.00
2023-02-03T11:40:29.710Z,100.00
2023-02-03T11:43:32.448Z,100.00
2023-02-03T11:46:37.236Z,100.00
2023-02-03T11:49:51.678Z,100.00
2023-02-03T11:52:56.573Z,100.00
2023-02-03T11:56:13.904Z,100.00
2023-02-03T11:59:32.399Z,100.00
2023-02-03T12:02:53.182Z,100.00
2023-02-03T12:06:01.492Z,100.00
2023-02-03T12:09:06.217Z,100.00
2023-02-03T12:12:47.005Z,100.00
2023-02-03T12:16:15.586Z,100.00
2023-02-03T12:19:30.713Z,100.00
2023-02-03T12:22:51.185Z,100.00
2023-02-03T12:26:11.978Z,100.00
2023-02-03T12:29:20.733Z,100.00
2023-02-03T12:32:22.664Z,100.00
2023-02-03T12:35:36.342Z,100.00
2023-02-03T12:38:43.956Z,100.00
2023-02-03T12:41:54.419Z,100.00
2023-02-03T12:45:06.431Z,100.00
2023-02-03T12:48:14.070Z,100.00
2023-02-03T12:51:20.061Z,100.00
2023-02-03T12:54:35.197Z,100.00
2023-02-03T12:57:55.732Z,100.00
2023-02-03T13:01:05.081Z,100.00
2023-02-03T13:04:11.938Z,100.00
2023-02-03T13:07:21.403Z,100.00
2023-02-03T13:10:30.222Z,100.00
2023-02-03T13:13:39.972Z,100.00
2023-02-03T13:16:44.935Z,100.00
2023-02-03T13:19:49.792Z,100.00
2023-02-03T13:22:53.282Z,100.00
2023-02-03T13:26:14.426Z,100.00
2023-02-03T13:29:27.849Z,100.00
2023-02-03T13:32:38.933Z,100.00
2023-02-03T13:35:46.835Z,100.00
2023-02-03T13:38:49.092Z,100.00
2023-02-03T13:41:55.961Z,100.00
2023-02-03T13:45:04.189Z,100.00
2023-02-03T13:48:17.716Z,100.00
2023-02-03T13:51:24.257Z,100.00
2023-02-03T13:54:34.978Z,100.00
2023-02-03T13:57:38.415Z,100.00
2023-02-03T14:00:43.423Z,100.00
2023-02-03T14:03:45.520Z,100.00
2023-02-03T14:06:52.509Z,100.00
2023-02-03T14:10:13.188Z,100.00
2023-02-03T14:13:20.578Z,100.00
2023-02-03T14:16:24.161Z,100.00
2023-02-03T14:19:26.069Z,100.00
2023-02-03T14:22:28.798Z,100.00
2023-02-03T14:25:32.073Z,100.00
2023-02-03T14:28:42.289Z,100.00
2023-02-03T14:31:55.882Z,100.00
2023-02-03T14:34:58.551Z,100.00
2023-02-03T14:38:09.454Z,100.00
2023-02-03T14:41:11.458Z,100.00
2023-02-03T14:44:22.062Z,100.00
2023-02-03T14:47:42.823Z,100.00
2023-02-03T14:50:57.834Z,100.00
2023-02-03T14:54:05.728Z,100.00
2023-02-03T14:57:26.152Z,100.00
2023-02-03T15:00:33.470Z,100.00
2023-02-03T15:03:37.870Z,100.00
2023-02-03T15:06:41.601Z,100.00
2023-02-03T15:09:46.051Z,100.00
2023-02-03T15:12:49.606Z,100.00
2023-02-03T15:15:52.935Z,100.00
2023-02-03T15:18:59.847Z,100.00
2023-02-03T15:22:02.573Z,100.00
2023-02-03T15:25:14.506Z,100.00
2023-02-03T15:28:20.940Z,100.00
2023-02-03T15:31:23.564Z,100.00
2023-02-03T15:34:31.614Z,100.00
2023-02-03T15:37:39.096Z,100.00
2023-02-03T15:40:45.329Z,100.00
2023-02-03T15:43:49.612Z,100.00
2023-02-03T15:46:52.466Z,100.00
2023-02-03T15:50:06.432Z,100.00
2023-02-03T15:53:15.727Z,100.00
2023-02-03T15:56:20.095Z,100.00
2023-02-03T15:59:29.305Z,100.00
2023-02-03T16:02:33.782Z,100.00
2023-02-03T16:05:37.330Z,100.00
2023-02-03T16:08:42.776Z,100.00
2023-02-03T16:11:44.837Z,100.00
2023-02-03T16:14:47.059Z,100.00
2023-02-03T16:17:54.417Z,100.00
2023-02-03T16:20:56.359Z,100.00
2023-02-03T16:23:58.743Z,100.00
2023-02-03T16:27:20.780Z,100.00
2023-02-03T16:30:42.510Z,100.00
2023-02-03T16:34:04.540Z,100.00
2023-02-03T16:37:45.276Z,100.00
2023-02-03T16:41:06.149Z,100.00
2023-02-03T16:44:30.040Z,100.00
2023-02-03T16:47:51.304Z,100.00
2023-02-03T16:50:58.982Z,100.00
2023-02-03T16:54:01.291Z,100.00
2023-02-03T16:57:03.115Z,100.00
2023-02-03T17:00:06.224Z,100.00
2023-02-03T17:03:10.067Z,100.00
2023-02-03T17:06:12.587Z,100.00
2023-02-03T17:09:14.588Z,100.00
2023-02-03T17:12:16.466Z,100.00
2023-02-03T17:15:18.374Z,100.00
2023-02-03T17:18:20.856Z,100.00
2023-02-03T17:21:24.415Z,100.00
2023-02-03T17:24:26.148Z,100.00
2023-02-03T17:27:28.113Z,100.00
2023-02-03T17:30:33.897Z,100.00
2023-02-03T17:33:35.801Z,100.00
2023-02-03T17:36:37.636Z,100.00
2023-02-03T17:56:09.217Z,100.00
2023-02-03T17:59:11.032Z,100.00
2023-02-03T18:02:12.887Z,100.00
2023-02-03T18:05:14.700Z,100.00
2023-02-03T18:08:20.251Z,100.00
2023-02-03T18:11:22.238Z,100.00
2023-02-03T18:14:24.098Z,100.00
2023-02-03T18:17:25.927Z,100.00
2023-02-03T18:20:28.178Z,100.00
2023-02-03T18:23:33.386Z,100.00
2023-02-03T18:26:37.050Z,100.00
2023-02-03T18:29:40.896Z,100.00
2023-02-03T18:32:42.803Z,100.00
2023-02-03T18:35:44.792Z,100.00
2023-02-03T18:38:47.383Z,100.00
2023-02-03T18:41:49.287Z,100.00
2023-02-03T18:44:51.081Z,100.00
2023-02-03T18:47:52.892Z,100.00
2023-02-03T18:50:54.681Z,100.00
2023-02-03T18:53:57.430Z,100.00
2023-02-03T18:56:59.374Z,100.00
2023-02-03T19:00:01.275Z,100.00
2023-02-03T19:03:03.158Z,100.00
2023-02-03T19:06:08.927Z,100.00
2023-02-03T19:09:12.109Z,100.00
2023-02-03T19:12:13.946Z,100.00
2023-02-03T19:15:15.783Z,100.00
2023-02-03T19:18:17.617Z,100.00
2023-02-03T19:21:19.408Z,100.00
2023-02-03T19:24:21.673Z,100.00
2023-02-03T19:27:24.015Z,100.00
2023-02-03T19:30:25.780Z,100.00
2023-02-03T19:33:27.590Z,100.00
2023-02-03T19:36:30.168Z,100.00
2023-02-03T19:39:32.480Z,100.00
2023-02-03T19:42:34.347Z,100.00
2023-02-03T19:45:36.129Z,100.00
2023-02-03T19:48:38.511Z,100.00
2023-02-03T19:51:40.874Z,100.00
2023-02-03T19:54:42.712Z,100.00
2023-02-03T19:57:44.509Z,100.00
2023-02-03T20:00:46.557Z,100.00
2023-02-03T20:03:48.674Z,100.00
2023-02-03T20:06:50.594Z,100.00
2023-02-03T20:09:52.456Z,100.00
2023-02-03T20:12:54.935Z,100.00
2023-02-03T20:15:56.916Z,100.00
2023-02-03T20:19:01.084Z,100.00
2023-02-03T20:22:02.942Z,100.00
2023-02-03T20:25:06.237Z,100.00
2023-02-03T20:28:09.029Z,100.00
2023-02-03T20:31:11.103Z,100.00
2023-02-03T20:34:13.023Z,100.00
2023-02-03T20:37:14.928Z,100.00
2023-02-03T20:40:17.654Z,100.00
2023-02-03T20:43:23.758Z,100.00
2023-02-03T20:46:26.212Z,100.00
2023-02-03T20:49:28.177Z,100.00
2023-02-03T20:52:30.185Z,100.00
2023-02-03T20:55:32.162Z,100.00
2023-02-03T20:58:35.180Z,100.00
2023-02-03T21:01:37.491Z,100.00
2023-02-03T21:04:57.955Z,100.00
2023-02-03T21:08:00.296Z,100.00
2023-02-03T21:11:03.947Z,100.00
2023-02-03T21:14:17.474Z,100.00
2023-02-03T21:17:20.813Z,100.00
2023-02-03T21:20:29.365Z,100.00
2023-02-03T21:23:40.174Z,100.00
2023-02-03T21:26:42.966Z,100.00
2023-02-03T21:29:46.857Z,100.00
2023-02-03T21:32:49.948Z,100.00
2023-02-03T21:35:52.649Z,100.00
2023-02-03T21:38:58.280Z,100.00
2023-02-03T21:42:42.265Z,100.00
2023-02-03T21:45:46.836Z,100.00
2023-02-03T21:48:52.404Z,100.00
2023-02-03T21:51:55.803Z,100.00
2023-02-03T21:55:02.379Z,100.00
2023-02-03T21:58:19.044Z,100.00
2023-02-03T22:01:24.800Z,100.00
2023-02-03T22:04:32.581Z,100.00
2023-02-03T22:07:36.680Z,100.00
2023-02-03T22:10:39.411Z,100.00
2023-02-03T22:13:43.560Z,100.00
2023-02-03T22:16:50.122Z,100.00
2023-02-03T22:19:54.565Z,100.00
2023-02-03T22:23:01.639Z,100.00
2023-02-03T22:26:05.547Z,100.00
2023-02-03T22:29:09.152Z,100.00
2023-02-03T22:32:15.107Z,100.00
2023-02-03T22:35:21.887Z,100.00
2023-02-03T22:38:26.927Z,100.00
2023-02-03T22:41:30.730Z,100.00
2023-02-03T22:44:38.742Z,100.00
2023-02-03T22:47:42.446Z,100.00
2023-02-03T22:50:48.044Z,100.00
2023-02-03T22:53:56.204Z,100.00
2023-02-03T22:57:03.080Z,100.00
2023-02-03T23:00:15.815Z,100.00
2023-02-03T23:03:19.609Z,100.00
2023-02-03T23:06:29.265Z,100.00
2023-02-03T23:09:35.516Z,100.00
2023-02-03T23:12:41.483Z,98.74
2023-02-03T23:15:50.150Z,98.00
2023-02-03T23:18:56.467Z,98.91
2023-02-03T23:22:02.434Z,100.00
2023-02-03T23:25:08.187Z,98.27
2023-02-03T23:28:19.189Z,100.00
2023-02-03T23:31:26.340Z,99.97
2023-02-03T23:34:49.813Z,100.00
2023-02-03T23:37:54.766Z,99.87
2023-02-03T23:40:58.968Z,100.00
2023-02-03T23:44:03.798Z,99.74
2023-02-03T23:47:08.326Z,99.43
2023-02-03T23:50:15.578Z,100.00
2023-02-03T23:53:24.158Z,99.09
2023-02-03T23:56:27.528Z,100.00
2023-02-03T23:59:32.999Z,100.00
